Latest Weather Observations for Thredbo Top Station

IDN60901

Issued at 12:01 am EDT Friday 20 January 2017 (issued every 10 minutes, with the page automatically refreshed every 10 minutes)

About weather observations | Map of Canberra area stations | Latest observations for Canberra area | Other Formats
Station Details ID: 071032 Name: THREDBO AWS Lat: -36.49 Lon: 148.29 Height: 1957.0 m
Data from the previous 72 hours. | See also: Recent months at Thredbo Top Station
Date/Time
EDT
Temp
°C
App
Temp
°C
Dew
Point
°C
Rel
Hum
%
Delta-T
°C
Wind Press
QNH
hPa
Press
MSL
hPa
Rain since
9am
mm
Dir  Spd
km/h
Gust
km/h
Spd
kts
Gust
kts
19/11:30pm 12.6 4.4 6.4 66 3.3 NNW 39 46 21 25 - - 0.2
19/11:00pm 13.6 5.9 5.5 58 4.2 NNW 35 41 19 22 - - 0.2
19/10:30pm 13.6 7.5 4.7 55 4.6 NW 26 41 14 22 - - 0.2
19/10:00pm 13.4 6.3 5.6 59 4.1 NW 32 44 17 24 - - 0.2
19/09:30pm 13.4 5.8 5.6 59 4.1 NNW 35 46 19 25 - - 0.2
19/09:00pm 13.1 6.7 5.0 58 4.2 NNW 28 35 15 19 1014.4 1005.5 0.2
19/08:30pm 12.7 8.7 5.1 60 3.9 NW 15 22 8 12 1015.0 1006.1 0.2
19/08:00pm 12.9 8.9 5.1 59 4.0 NW 15 20 8 11 1015.3 1006.3 0.2
19/07:30pm 14.3 9.9 4.9 53 4.9 WNW 17 24 9 13 1015.5 1006.6 0.2
19/07:00pm 14.9 10.5 4.6 50 5.4 NW 17 22 9 12 1015.7 1006.8 0.2
19/06:30pm 15.5 10.9 3.6 45 6.1 NW 17 24 9 13 1016.0 1007.1 0.2
19/06:00pm 15.5 10.2 2.0 40 6.7 NNW 19 30 10 16 1016.0 1007.1 0.2
19/05:30pm 15.9 10.9 3.4 43 6.4 NW 19 28 10 15 1016.6 1007.7 0.2
19/05:00pm 16.8 11.8 3.5 41 6.8 NW 19 28 10 15 1016.7 1007.9 0.2
19/04:30pm 17.3 12.0 1.7 35 7.8 WNW 19 28 10 15 1017.2 1008.4 0.2
19/04:00pm 17.4 12.6 4.4 42 6.8 NW 19 28 10 15 1017.3 1008.5 0.2
19/03:30pm 17.0 11.5 0.6 33 8.0 NW 19 35 10 19 1017.6 1008.7 0.2
19/03:00pm 17.3 13.2 2.1 36 7.6 WNW 13 26 7 14 1017.9 1009.1 0.2
19/02:30pm 16.8 12.5 0.9 34 7.8 NW 13 22 7 12 1018.0 1009.2 0.2
19/02:00pm 17.1 13.4 4.4 43 6.7 NW 13 20 7 11 1018.3 1009.5 0.2
19/01:30pm 16.1 12.0 -0.2 33 7.8 NW 11 24 6 13 1018.4 1009.6 0.2
19/01:00pm 16.3 14.1 6.2 51 5.5 S 7 15 4 8 1018.5 1009.7 0.2
19/12:30pm 17.5 14.7 3.0 38 7.4 WSW 7 24 4 13 1018.7 1009.9 0.2
19/12:00pm 16.9 13.7 4.9 45 6.3 W 11 22 6 12 1018.7 1009.9 0.2
19/11:30am 16.7 12.0 0.8 34 7.8 WNW 15 26 8 14 1018.7 1009.9 0.2
19/11:00am 15.4 9.8 0.0 35 7.3 WNW 19 30 10 16 1018.7 1009.9 0.2
19/10:30am 15.0 7.9 -1.1 33 7.5 NW 26 35 14 19 1018.4 1009.6 0.2
19/10:00am 14.6 7.3 -3.2 29 7.9 NW 26 37 14 20 1018.3 1009.5 0.2
19/09:30am 14.4 7.5 -2.5 31 7.6 NW 24 37 13 20 1018.3 1009.5 0.0
19/09:00am 13.7 6.2 -1.5 35 6.9 NW 28 37 15 20 1018.2 1009.4 0.0
19/08:30am 12.6 5.5 1.3 46 5.4 NW 28 33 15 18 1018.2 1009.4 0.0
19/08:00am 11.9 4.6 0.1 44 5.5 NW 28 37 15 20 1018.2 1009.4 0.0
19/07:30am 11.5 3.6 -1.3 41 5.7 NW 30 37 16 20 1017.8 1009.0 0.0
19/07:00am 10.2 2.3 1.3 54 4.2 NW 32 39 17 21 1017.6 1008.7 0.0
19/06:30am 9.9 2.3 0.3 51 4.4 NW 30 35 16 19 1017.3 1008.5 0.0
19/06:00am 9.6 2.2 -0.9 48 4.7 NW 28 37 15 20 1017.1 1008.2 0.0
19/05:30am 10.0 2.5 -1.4 45 5.0 NW 28 37 15 20 1017.0 1008.1 0.0
19/05:00am 10.2 2.4 -0.9 46 5.0 NW 30 37 16 20 1016.7 1007.9 0.0
19/04:30am 10.5 3.0 -1.5 43 5.3 NW 28 35 15 19 1016.6 1007.7 0.0
19/04:00am 10.2 2.4 -0.6 47 4.9 NNW 30 35 16 19 1016.8 1008.0 0.0
19/03:30am 9.9 2.5 -0.9 47 4.8 NNW 28 33 15 18 1017.1 1008.2 0.0
19/03:00am 9.8 3.2 -0.7 48 4.7 NW 24 32 13 17 1017.4 1008.6 0.0
19/02:55am 9.3 3.7 -0.3 51 4.3 NW 19 32 10 17 1017.4 1008.6 0.0
19/02:30am 4.3 -0.2 4.0 98 0.1 N 17 22 9 12 1018.0 1009.2 0.0
19/02:00am 4.8 1.5 4.7 99 0.0 NNE 11 20 6 11 1018.4 1009.6 0.0
19/01:30am 4.5 0.8 4.4 99 0.0 N 13 30 7 16 1018.5 1009.7 0.0
19/01:00am 4.8 -2.1 4.7 99 0.0 NNW 30 33 16 18 1018.8 1010.0 0.0
19/12:54am 4.6 -0.2 4.5 99 0.0 NNW 19 33 10 18 1018.8 1010.0 0.0
19/12:30am 5.1 2.8 5.0 99 0.0 N 6 7 3 4 1019.5 1010.7 0.0
19/12:00am 5.1 2.8 5.0 99 0.0 NE 6 9 3 5 1019.5 1010.7 0.0
 
Date/Time
EDT
Temp
°C
App
Temp
°C
Dew
Point
°C
Rel
Hum
%
Delta-T
°C
Wind Press
QNH
hPa
Press
MSL
hPa
Rain since
9am
mm
Dir  Spd
km/h
Gust
km/h
Spd
kts
Gust
kts
18/11:30pm 7.0 3.9 3.6 79 1.6 NNW 9 15 5 8 1019.6 1010.9 0.0
18/11:00pm 6.6 4.7 6.5 99 0.1 NNW 6 11 3 6 1020.0 1011.2 0.0
18/10:30pm 7.8 4.8 5.8 87 1.0 NW 11 15 6 8 1019.7 1011.0 0.0
18/10:00pm 7.5 3.8 6.4 93 0.6 NW 15 19 8 10 1020.0 1011.2 0.0
18/09:30pm 9.5 6.9 7.9 90 0.9 WNW 11 15 6 8 1019.6 1010.9 0.0
18/09:00pm 8.4 7.6 8.3 99 0.1 NE 2 6 1 3 1019.5 1010.7 0.0
18/08:30pm 9.1 8.5 9.0 99 0.1 S 2 4 1 2 1019.3 1010.5 0.0
18/08:00pm 9.4 8.1 9.3 99 0.1 S 6 9 3 5 1019.0 1010.2 0.0
18/07:30pm 10.8 9.9 9.1 89 0.9 ENE 4 7 2 4 1018.4 1009.6 0.0
18/07:00pm 13.4 10.2 10.0 80 1.9 WNW 17 26 9 14 1018.2 1009.4 0.0
18/06:30pm 14.5 10.8 9.3 71 3.0 WSW 19 28 10 15 1017.9 1009.1 0.0
18/06:00pm 15.4 10.7 6.2 54 4.9 W 20 30 11 16 1017.6 1008.7 0.0
18/05:30pm 16.0 11.5 6.2 52 5.3 WNW 19 32 10 17 1017.4 1008.6 0.0
18/05:00pm 15.8 11.0 5.4 50 5.5 WNW 20 30 11 16 1017.7 1008.9 0.0
18/04:39pm 15.3 9.0 5.5 52 5.2 NW 28 46 15 25 1017.7 1008.9 0.0
18/04:30pm 15.3 8.2 3.8 46 5.9 NW 30 44 16 24 1017.4 1008.6 0.0
18/04:00pm 14.6 7.3 4.3 50 5.3 NW 32 50 17 27 1017.7 1008.9 0.0
18/03:48pm 14.4 5.8 4.7 52 5.0 NW 39 57 21 31 1017.6 1008.7 0.0
18/03:30pm 14.5 5.2 6.1 57 4.5 NNW 44 61 24 33 1017.0 1008.1 0.0
18/03:00pm 13.8 5.5 9.3 74 2.5 NNW 43 63 23 34 1016.8 1008.0 0.0
18/02:30pm 13.6 6.0 9.1 74 2.5 NW 39 59 21 32 1017.1 1008.2 0.0
18/02:05pm 13.4 5.7 8.5 72 2.7 NW 39 59 21 32 1017.6 1008.7 0.0
18/02:00pm 13.5 6.2 8.6 72 2.7 NW 37 52 20 28 1017.7 1008.9 0.0
18/01:48pm 13.6 5.9 8.7 72 2.7 NW 39 59 21 32 1017.7 1008.9 0.0
18/01:30pm 13.3 6.9 8.4 72 2.7 NW 32 48 17 26 1017.9 1009.1 0.0
18/01:01pm 13.4 7.1 7.6 68 3.2 WNW 30 48 16 26 1018.3 1009.5 0.0
18/01:00pm 13.5 6.8 7.5 67 3.3 WNW 32 48 17 26 1018.3 1009.5 0.0
18/12:30pm 14.4 7.9 6.7 60 4.2 WNW 30 44 16 24 1018.0 1009.2 0.0
18/12:00pm 14.6 7.3 4.6 51 5.2 WNW 32 50 17 27 1018.0 1009.2 0.0
18/11:30am 14.9 8.1 4.9 51 5.2 WNW 30 48 16 26 1018.0 1009.2 0.0
18/11:01am 15.8 9.0 2.9 42 6.5 WNW 28 48 15 26 1017.8 1009.0 0.0
18/11:00am 15.5 8.8 3.6 45 6.1 WNW 28 41 15 22 1017.8 1009.0 0.0
18/10:48am 15.5 8.7 3.3 44 6.2 W 28 50 15 27 1018.0 1009.2 0.0
18/10:30am 16.2 9.2 2.2 39 7.0 W 28 44 15 24 1018.3 1009.5 0.0
18/10:00am 17.6 9.0 0.3 31 8.4 W 35 54 19 29 1017.8 1009.0 0.0
18/09:30am 19.7 11.6 -0.3 26 9.8 W 32 50 17 27 1017.2 1008.4 0.0
18/09:05am 19.5 11.8 0.0 27 9.5 WNW 30 48 16 26 1016.8 1008.0 0.0
18/09:00am 19.6 12.3 0.1 27 9.6 WNW 28 44 15 24 1017.0 1008.1 0.0
18/08:39am 18.8 11.6 0.4 29 9.0 WNW 28 46 15 25 1017.0 1008.1 0.0
18/08:30am 17.9 10.3 0.6 31 8.5 WNW 30 44 16 24 1017.0 1008.1 0.0
18/08:11am 17.6 10.0 0.3 31 8.4 WNW 30 48 16 26 1017.1 1008.2 0.0
18/08:00am 17.4 10.5 0.1 31 8.4 WNW 26 43 14 23 1017.1 1008.2 0.0
18/07:30am 17.2 9.8 -0.5 30 8.4 WNW 28 46 15 25 1016.8 1008.0 0.0
18/07:15am 16.6 9.2 -0.6 31 8.1 WNW 28 46 15 25 1017.0 1008.1 0.0
18/07:00am 16.2 9.2 -0.5 32 7.9 WNW 26 37 14 20 1017.0 1008.1 0.0
18/06:30am 16.2 8.3 -1.8 29 8.3 NW 30 43 16 23 1017.0 1008.1 0.0
18/06:00am 15.8 9.0 -2.2 29 8.2 WNW 24 37 13 20 1017.1 1008.2 0.0
18/05:30am 16.5 9.6 -2.5 27 8.7 WNW 24 39 13 21 1016.7 1007.9 0.0
18/05:00am 17.5 8.8 -3.3 24 9.4 NW 33 44 18 24 1016.1 1007.2 0.0
18/04:34am 17.0 9.6 -0.7 30 8.4 NW 28 46 15 25 1016.1 1007.2 0.0
18/04:30am 16.9 9.9 -0.3 31 8.2 NW 26 43 14 23 1016.0 1007.1 0.0
18/04:00am 16.2 10.6 1.1 36 7.4 WNW 20 30 11 16 1016.4 1007.5 0.0
18/03:30am 17.9 11.0 -2.4 25 9.4 WNW 24 37 13 20 1016.7 1007.9 0.0
18/03:00am 17.9 10.5 -3.5 23 9.7 WNW 26 39 14 21 1017.0 1008.1 0.0
18/02:42am 18.5 10.8 -3.0 23 9.9 WNW 28 46 15 25 1017.1 1008.2 0.0
18/02:30am 18.1 11.2 -2.8 24 9.6 WNW 24 41 13 22 1017.3 1008.5 0.0
18/02:00am 18.7 11.4 -2.8 23 9.9 WNW 26 37 14 20 1017.6 1008.7 0.0
18/01:30am 18.5 10.3 -3.6 22 10.0 WNW 30 43 16 23 1018.0 1009.2 0.0
18/01:10am 19.3 11.6 -2.9 22 10.3 WNW 28 46 15 25 1018.2 1009.4 0.0
18/01:00am 18.4 11.9 -2.5 24 9.7 WNW 22 35 12 19 1018.5 1009.7 0.0
18/12:30am 18.5 12.5 -1.3 26 9.4 WNW 20 32 11 17 1019.0 1010.2 0.0
18/12:00am 17.5 11.9 0.2 31 8.4 WNW 19 28 10 15 1019.7 1011.0 0.0
 
Date/Time
EDT
Temp
°C
App
Temp
°C
Dew
Point
°C
Rel
Hum
%
Delta-T
°C
Wind Press
QNH
hPa
Press
MSL
hPa
Rain since
9am
mm
Dir  Spd
km/h
Gust
km/h
Spd
kts
Gust
kts
17/11:30pm 17.7 13.0 1.2 33 8.2 WNW 15 20 8 11 1020.2 1011.5 0.0
17/11:00pm 18.8 12.8 1.3 31 8.7 NW 22 37 12 20 1020.4 1011.6 0.0
17/10:30pm 18.4 12.8 1.4 32 8.5 NW 20 35 11 19 1020.6 1011.9 0.0
17/10:00pm 17.5 12.2 1.9 35 7.8 NW 19 24 10 13 1020.7 1012.0 0.0
17/09:30pm 17.3 12.2 2.9 38 7.3 NW 19 24 10 13 1020.8 1012.1 0.0
17/09:00pm 17.1 12.5 3.8 41 6.9 NW 17 22 9 12 1020.8 1012.1 0.0
17/08:30pm 17.7 13.7 5.0 43 6.8 NW 15 20 8 11 1021.1 1012.4 0.0
17/08:00pm 18.8 15.0 5.6 42 7.1 NW 15 24 8 13 1021.1 1012.4 0.0
17/07:30pm 20.3 15.5 5.5 38 8.1 NW 20 28 11 15 1021.0 1012.3 0.0
17/07:00pm 20.7 15.8 7.0 41 7.7 WNW 22 35 12 19 1021.0 1012.3 0.0
17/06:30pm 19.6 15.2 7.4 45 6.9 WNW 20 32 11 17 1021.1 1012.4 0.0
17/06:00pm 21.2 17.0 8.1 43 7.5 WNW 20 30 11 16 1021.2 1012.5 0.0
17/05:30pm 20.7 16.4 8.0 44 7.3 WNW 20 30 11 16 1021.4 1012.8 0.0
17/05:00pm 21.3 16.4 8.6 44 7.3 WNW 24 35 13 19 1021.7 1013.0 0.0
17/04:30pm 21.3 16.5 8.9 45 7.2 WNW 24 39 13 21 1021.8 1013.1 0.0
17/04:12pm 20.3 14.1 7.7 44 7.2 WNW 30 48 16 26 1021.8 1013.1 0.0
17/04:00pm 20.1 13.3 7.5 44 7.1 WNW 33 44 18 24 1021.8 1013.1 0.0
17/03:30pm 21.1 14.6 8.0 43 7.5 NW 32 52 17 28 1021.7 1013.0 0.0
17/03:05pm 20.2 11.6 6.5 41 7.6 WNW 41 61 22 33 1021.6 1012.9 0.0
17/03:00pm 20.4 11.9 7.1 42 7.5 NW 41 57 22 31 1021.6 1012.9 0.0
17/02:33pm 20.6 12.6 7.6 43 7.4 NW 39 57 21 31 1021.7 1013.0 0.0
17/02:30pm 20.9 12.5 7.2 41 7.7 NW 41 57 22 31 1021.8 1013.1 0.0
17/02:03pm 20.2 9.8 4.3 35 8.5 NW 48 69 26 37 1021.6 1012.9 0.0
17/02:00pm 20.4 9.8 3.2 32 9.0 NW 48 63 26 34 1021.7 1013.0 0.0
17/01:32pm 20.2 9.3 -1.0 24 10.2 NW 46 67 25 36 1021.8 1013.1 0.0
17/01:30pm 20.2 9.3 -1.0 24 10.2 NW 46 63 25 34 1022.0 1013.4 0.0
17/01:00pm 18.9 10.5 1.4 31 8.7 NW 35 59 19 32 1022.5 1013.9 0.0
17/12:31pm 17.8 9.7 3.3 38 7.5 NW 35 59 19 32 1022.5 1013.9 0.0
17/12:30pm 17.8 9.8 4.0 40 7.2 NW 35 50 19 27 1022.7 1014.0 0.0
17/12:00pm 17.0 9.5 4.7 44 6.5 NW 33 52 18 28 1022.9 1014.3 0.0
17/11:30am 16.9 8.0 2.9 39 7.1 NW 39 65 21 35 1022.7 1014.0 0.0
17/11:00am 16.4 6.5 1.7 37 7.3 NW 43 61 23 33 1022.4 1013.8 0.0
17/10:37am 16.0 4.5 2.4 40 6.8 NW 52 70 28 38 1021.6 1012.9 0.0
17/10:30am 16.0 3.7 2.1 39 6.9 NNW 56 72 30 39 1021.4 1012.8 0.0
17/10:00am 16.0 6.2 2.1 39 6.9 NW 43 65 23 35 1021.9 1013.3 0.0
17/09:40am 15.9 7.1 1.6 38 7.0 NW 37 59 20 32 1022.7 1014.0 0.0
17/09:30am 15.9 7.1 1.6 38 7.0 NW 37 54 20 29 1022.8 1014.1 0.0
17/09:02am 16.1 6.4 0.7 35 7.5 NW 41 65 22 35 1022.9 1014.3 0.0
17/09:00am 16.0 6.4 1.0 36 7.3 NW 41 57 22 31 1022.9 1014.3 0.0
17/08:30am 16.0 5.7 0.2 34 7.6 NW 44 67 24 36 1022.4 1013.8 0.0
17/08:00am 15.7 4.5 -0.5 33 7.6 NW 48 70 26 38 1021.7 1013.0 0.0
17/07:30am 16.6 6.4 -0.1 32 8.0 NW 43 65 23 35 1021.6 1012.9 0.0
17/07:00am 16.2 5.8 -0.5 32 7.9 NW 44 63 24 34 1021.0 1012.3 0.0
17/06:31am 15.2 3.6 -0.5 34 7.4 NW 50 69 27 37 1021.2 1012.5 0.0
17/06:30am 15.3 3.4 -0.4 34 7.4 NW 52 69 28 37 1021.0 1012.3 0.0
17/06:00am 15.1 4.4 0.2 36 7.1 NW 46 57 25 31 1021.2 1012.5 0.0
17/05:30am 14.9 5.1 -0.4 35 7.2 NW 41 57 22 31 1021.2 1012.5 0.0
17/05:16am 15.0 5.5 -1.1 33 7.5 NW 39 57 21 31 1021.6 1012.9 0.0
17/05:00am 15.1 4.8 -1.0 33 7.5 NNW 43 56 23 30 1021.3 1012.6 0.0
17/04:30am 15.4 4.5 -1.2 32 7.7 NNW 46 57 25 31 1021.0 1012.3 0.0
17/04:00am 15.1 4.5 0.9 38 6.8 NNW 46 59 25 32 1021.1 1012.4 0.0
17/03:30am 14.8 4.9 1.7 41 6.4 NW 43 52 23 28 1021.4 1012.8 0.0
17/03:00am 14.9 4.7 1.1 39 6.7 NNW 44 56 24 30 1021.7 1013.0 0.0
17/02:30am 15.0 4.8 0.8 38 6.8 NNW 44 54 24 29 1021.9 1013.3 0.0
17/02:00am 15.5 4.9 0.5 36 7.2 NNW 46 56 25 30 1022.0 1013.4 0.0
17/01:30am 15.5 4.5 0.5 36 7.2 NW 48 57 26 31 1022.4 1013.8 0.0
17/01:00am 15.9 4.5 0.5 35 7.4 NW 50 59 27 32 1022.3 1013.6 0.0
17/12:30am 15.8 4.6 -0.4 33 7.7 NW 48 57 26 31 1022.4 1013.8 0.0

Latest Capital City Observations: Canberra | Sydney | Melbourne | Brisbane | Adelaide | Perth | Hobart | Darwin

Other Formats:

Comma delimited format used in spreadsheet applications
http://www.bom.gov.au/fwo/IDN60903/IDN60903.95909.axf

JavaScript Object Notation format (JSON) in row-major order
http://www.bom.gov.au/fwo/IDN60903/IDN60903.95909.json